Time;durP1;ratioP1;P1;durP2;ratioP2;P2;SDS_P1;SDS_P2;PMS_P1;PMS_P2;Temp;Humidity;BMP_temperature;BMP_pressure;BME280_temperature;BME280_humidity;BME280_pressure;Samples;Min_cycle;Max_cycle;Signal;HPM_P1;HPM_P2
2023/06/30 00:00:11;;;;;;;3.75;1.42;;;;;;;17.73;94.51;101322.56;5070040;28;20161;-78
2023/06/30 00:02:37;;;;;;;5.60;1.63;;;;;;;17.74;94.25;101323.38;5069329;28;20034;-78
2023/06/30 00:05:02;;;;;;;8.30;1.73;;;;;;;17.68;94.78;101318.13;5054218;28;20020;-78
2023/06/30 00:07:28;;;;;;;10.07;2.35;;;;;;;17.70;94.49;101316.91;5071071;28;20027;-77
2023/06/30 00:09:53;;;;;;;7.53;2.00;;;;;;;17.63;94.70;101304.44;5054090;28;20040;-78
2023/06/30 00:12:18;;;;;;;2.58;1.83;;;;;;;17.64;94.38;101303.19;5067681;28;20044;-77
2023/06/30 00:14:44;;;;;;;6.40;2.03;;;;;;;17.68;94.22;101309.63;5033977;28;20032;-78
2023/06/30 00:17:09;;;;;;;3.08;1.55;;;;;;;17.57;94.56;101297.59;5064303;28;20037;-78
2023/06/30 00:19:35;;;;;;;4.50;1.80;;;;;;;17.60;94.25;101298.78;5068526;28;20444;-78
2023/06/30 00:22:01;;;;;;;4.60;1.45;;;;;;;17.51;94.52;101293.59;5062580;28;20111;-77
2023/06/30 00:24:27;;;;;;;3.38;1.60;;;;;;;17.41;94.67;101291.66;5062550;28;20028;-77
2023/06/30 00:26:52;;;;;;;2.88;1.63;;;;;;;17.51;94.25;101304.13;5069792;28;20654;-77
2023/06/30 00:29:17;;;;;;;5.95;2.13;;;;;;;17.50;93.99;101300.50;5062104;28;20592;-77
2023/06/30 00:31:43;;;;;;;9.25;2.90;;;;;;;17.38;94.13;101295.34;5056142;28;20028;-77
2023/06/30 00:34:08;;;;;;;10.30;3.22;;;;;;;17.14;94.59;101286.59;5050253;28;20170;-77
2023/06/30 00:36:34;;;;;;;4.50;1.88;;;;;;;17.26;94.42;101288.91;5059792;28;20025;-78
2023/06/30 00:38:59;;;;;;;4.43;2.10;;;;;;;17.35;93.87;101294.13;5064379;28;21450;-78
2023/06/30 00:41:24;;;;;;;3.88;1.75;;;;;;;17.30;94.03;101288.09;5043441;28;20677;-78
2023/06/30 00:43:50;;;;;;;3.95;1.98;;;;;;;17.26;94.40;101286.09;5069437;28;20069;-77
2023/06/30 00:46:17;;;;;;;4.00;1.83;;;;;;;17.22;93.95;101276.84;5066872;28;20594;-77
2023/06/30 00:48:43;;;;;;;5.53;1.38;;;;;;;17.25;94.04;101286.53;5063922;28;21694;-77
2023/06/30 00:51:11;;;;;;;7.60;2.03;;;;;;;17.10;94.53;101280.16;5056984;28;20043;-77
2023/06/30 00:53:36;;;;;;;5.90;1.45;;;;;;;17.08;94.51;101282.59;5048781;28;20923;-77
2023/06/30 00:56:01;;;;;;;5.25;1.70;;;;;;;17.15;94.07;101291.03;5064030;28;20107;-77
2023/06/30 00:58:27;;;;;;;5.30;1.67;;;;;;;16.98;95.26;101283.44;5059276;28;20450;-78
2023/06/30 01:00:59;;;;;;;5.32;1.75;;;;;;;17.05;94.92;101289.06;5066769;28;20510;-77
2023/06/30 01:03:34;;;;;;;5.53;2.00;;;;;;;17.01;94.56;101291.09;5059394;28;20038;-77
2023/06/30 01:06:23;;;;;;;3.58;2.13;;;;;;;17.07;94.50;101295.09;5070084;28;20036;-77
2023/06/30 01:09:02;;;;;;;3.60;1.55;;;;;;;17.03;94.43;101291.50;5069294;28;20024;-78
2023/06/30 01:11:28;;;;;;;5.57;1.60;;;;;;;17.00;94.20;101289.50;5069252;28;20027;-78
2023/06/30 01:13:55;;;;;;;3.17;1.73;;;;;;;16.86;95.62;101290.38;5070287;28;20051;-78
2023/06/30 01:16:23;;;;;;;4.75;1.92;;;;;;;16.86;95.22;101288.38;5075481;28;20040;-78
2023/06/30 01:18:53;;;;;;;5.28;1.60;;;;;;;16.77;96.12;101285.13;5070692;28;20115;-78
2023/06/30 01:21:21;;;;;;;4.78;1.80;;;;;;;16.73;96.84;101284.34;5052728;28;20739;-78
2023/06/30 01:23:55;;;;;;;6.05;1.73;;;;;;;16.84;95.77;101290.81;5069834;28;20020;-78
2023/06/30 01:26:23;;;;;;;1.98;1.58;;;;;;;16.66;96.72;101296.50;5072906;28;20032;-78
2023/06/30 01:28:50;;;;;;;4.65;1.70;;;;;;;16.80;95.69;101291.97;5067872;28;20515;-78
2023/06/30 01:31:18;;;;;;;3.83;1.70;;;;;;;16.75;96.23;101298.88;5068194;28;20558;-78
2023/06/30 01:33:43;;;;;;;2.53;1.67;;;;;;;16.76;96.13;101292.03;5070342;28;20035;-77
2023/06/30 01:36:09;;;;;;;2.63;1.55;;;;;;;16.74;95.46;101287.97;5073737;28;20637;-77
2023/06/30 01:38:35;;;;;;;3.42;1.73;;;;;;;16.58;96.66;101285.63;5050559;28;20036;-79
2023/06/30 01:41:01;;;;;;;5.22;1.67;;;;;;;16.61;96.86;101291.28;5065721;28;21002;-79
2023/06/30 01:43:28;;;;;;;4.75;1.40;;;;;;;16.66;96.24;101284.38;5044783;28;20028;-79
2023/06/30 01:45:55;;;;;;;5.65;1.90;;;;;;;16.51;96.81;101277.16;5064194;28;20109;-79
2023/06/30 01:48:21;;;;;;;4.90;2.88;;;;;;;16.48;97.21;101284.44;5062302;28;20488;-79
2023/06/30 01:50:47;;;;;;;5.40;2.08;;;;;;;16.51;96.81;101282.81;5064592;28;20046;-79
2023/06/30 01:53:13;;;;;;;4.47;2.03;;;;;;;16.49;96.88;101286.06;5064230;28;20086;-79
2023/06/30 01:55:45;;;;;;;1.38;1.27;;;;;;;16.46;97.07;101281.22;5046691;28;20052;-79
2023/06/30 01:58:10;;;;;;;5.53;1.83;;;;;;;16.34;97.38;101276.84;5064317;28;20036;-78
2023/06/30 02:00:35;;;;;;;4.88;1.40;;;;;;;16.41;96.97;101281.66;5060112;28;20581;-79
2023/06/30 02:03:01;;;;;;;6.90;1.92;;;;;;;16.41;96.83;101282.44;5063244;28;20648;-78
2023/06/30 02:05:26;;;;;;;4.90;1.70;;;;;;;16.24;97.75;101274.84;5062463;28;20126;-77
2023/06/30 02:07:51;;;;;;;9.27;2.15;;;;;;;16.19;97.72;101273.25;5064419;28;20048;-77
2023/06/30 02:10:17;;;;;;;3.30;1.52;;;;;;;16.15;97.64;101272.44;5044635;28;20051;-77
2023/06/30 02:12:43;;;;;;;7.03;1.50;;;;;;;16.28;96.92;101277.66;5066055;28;20032;-77
2023/06/30 02:15:08;;;;;;;4.45;1.73;;;;;;;16.32;96.75;101273.63;5058332;28;20024;-77
2023/06/30 02:17:35;;;;;;;2.53;1.48;;;;;;;16.28;96.82;101281.28;5044544;28;20742;-77
2023/06/30 02:20:03;;;;;;;3.05;1.83;;;;;;;16.32;96.50;101284.91;5062642;28;20109;-79
2023/06/30 02:22:31;;;;;;;8.30;2.10;;;;;;;16.11;97.40;101282.16;5059702;28;20520;-79
2023/06/30 02:24:57;;;;;;;3.05;1.67;;;;;;;16.01;97.55;101273.28;5061617;28;20028;-79
2023/06/30 02:27:23;;;;;;;5.57;1.80;;;;;;;16.00;97.44;101277.31;5052267;28;20024;-78
2023/06/30 02:29:50;;;;;;;4.85;1.55;;;;;;;16.00;97.21;101271.69;5058070;28;20035;-79
2023/06/30 02:32:15;;;;;;;3.85;2.08;;;;;;;16.07;96.96;101275.69;5065026;28;20035;-78
2023/06/30 02:34:40;;;;;;;6.65;1.77;;;;;;;15.88;97.89;101274.91;5064426;28;20028;-78
2023/06/30 02:37:06;;;;;;;4.85;2.00;;;;;;;15.82;97.83;101276.53;5062715;28;20165;-78
2023/06/30 02:39:31;;;;;;;7.65;2.42;;;;;;;15.87;97.65;101278.94;5051797;28;20066;-78
2023/06/30 02:41:56;;;;;;;4.22;1.80;;;;;;;15.83;97.96;101276.13;5066952;28;20131;-77
2023/06/30 02:44:22;;;;;;;4.93;1.40;;;;;;;15.78;98.28;101279.34;5053104;28;20528;-78
2023/06/30 02:46:48;;;;;;;4.53;1.73;;;;;;;15.86;97.59;101277.34;5047724;28;20036;-78
2023/06/30 02:49:13;;;;;;;3.35;2.33;;;;;;;15.83;97.72;101278.13;5065802;28;20043;-77
2023/06/30 02:51:38;;;;;;;7.10;1.70;;;;;;;15.94;96.95;101276.13;5066293;28;20111;-77
2023/06/30 02:54:04;;;;;;;6.65;2.40;;;;;;;15.73;98.42;101278.97;5064010;28;20036;-77
2023/06/30 02:56:29;;;;;;;3.97;2.28;;;;;;;15.77;98.06;101274.91;5057951;28;20396;-77
2023/06/30 02:58:55;;;;;;;4.43;1.50;;;;;;;15.83;97.80;101278.94;5059450;28;20538;-78
2023/06/30 03:01:21;;;;;;;7.60;2.20;;;;;;;15.89;97.12;101282.16;5058409;28;20383;-77
2023/06/30 03:03:49;;;;;;;2.15;1.50;;;;;;;15.85;97.16;101287.81;5062985;28;20512;-78
2023/06/30 03:06:14;;;;;;;3.25;1.30;;;;;;;15.82;97.57;101282.97;5069476;28;20016;-78
2023/06/30 03:08:40;;;;;;;3.03;1.75;;;;;;;15.74;98.16;101289.03;5073646;28;20033;-78
2023/06/30 03:11:08;;;;;;;9.88;2.80;;;;;;;15.83;97.28;101281.78;5072572;28;20048;-78
2023/06/30 03:13:33;;;;;;;6.00;1.52;;;;;;;15.87;97.10;101284.56;5061043;28;20167;-78
2023/06/30 03:15:59;;;;;;;4.32;1.65;;;;;;;15.82;97.35;101282.97;5072620;28;20396;-78
2023/06/30 03:18:24;;;;;;;7.53;1.45;;;;;;;15.86;97.02;101282.97;5081012;28;20059;-77
2023/06/30 03:20:50;;;;;;;3.25;1.58;;;;;;;15.90;96.41;101278.13;5076556;28;20532;-77
2023/06/30 03:23:15;;;;;;;4.90;1.92;;;;;;;15.75;97.81;101283.00;5076385;28;20028;-77
2023/06/30 03:25:41;;;;;;;3.28;1.55;;;;;;;15.78;97.03;101279.34;5074253;28;20027;-77
2023/06/30 03:28:06;;;;;;;2.08;1.55;;;;;;;15.96;95.83;101282.16;5071139;28;20107;-77
2023/06/30 03:30:32;;;;;;;5.00;1.67;;;;;;;15.90;96.52;101285.81;5072246;28;20030;-77
2023/06/30 03:32:57;;;;;;;9.48;2.13;;;;;;;15.80;97.19;101279.75;5074356;28;20028;-78
2023/06/30 03:35:22;;;;;;;6.45;2.15;;;;;;;15.75;97.68;101287.84;5059649;28;20480;-78
2023/06/30 03:37:48;;;;;;;4.45;1.48;;;;;;;15.65;98.08;101284.56;5065173;28;20518;-78
2023/06/30 03:40:13;;;;;;;4.40;1.63;;;;;;;15.67;97.96;101286.19;5068263;28;20123;-78
2023/06/30 03:42:39;;;;;;;2.65;1.30;;;;;;;15.59;97.97;101280.53;5067057;28;20043;-78
2023/06/30 03:45:05;;;;;;;8.15;1.95;;;;;;;15.71;97.42;101287.00;5068431;28;20024;-78
2023/06/30 03:47:30;;;;;;;4.38;1.88;;;;;;;15.50;98.56;101294.25;5068538;28;20551;-78
2023/06/30 03:49:55;;;;;;;3.88;1.67;;;;;;;15.61;97.79;101289.41;5066654;28;20428;-77
2023/06/30 03:52:21;;;;;;;4.13;1.95;;;;;;;15.60;97.81;101284.97;5055749;28;20484;-78
2023/06/30 03:54:46;;;;;;;3.25;1.50;;;;;;;15.57;97.98;101294.22;5064439;28;20435;-78
2023/06/30 03:57:12;;;;;;;7.50;2.15;;;;;;;15.68;96.96;101282.16;5075378;28;20035;-77
2023/06/30 03:59:37;;;;;;;4.93;1.63;;;;;;;15.77;96.39;101291.84;5084537;28;20293;-78
2023/06/30 04:02:03;;;;;;;4.72;1.77;;;;;;;15.70;97.16;101299.47;5079786;28;20034;-78
2023/06/30 04:04:28;;;;;;;5.60;2.60;;;;;;;15.71;96.66;101298.28;5076735;28;20162;-77
2023/06/30 04:06:53;;;;;;;7.03;2.45;;;;;;;15.77;95.97;101296.66;5092856;28;20118;-77
2023/06/30 04:09:19;;;;;;;3.83;2.00;;;;;;;15.69;96.55;101289.41;5078527;28;20038;-77
2023/06/30 04:11:44;;;;;;;6.90;2.20;;;;;;;15.73;96.43;101290.25;5088817;28;20039;-77
2023/06/30 04:14:10;;;;;;;3.28;1.48;;;;;;;15.78;95.66;101282.16;5076941;28;20545;-77
2023/06/30 04:16:35;;;;;;;4.30;2.00;;;;;;;15.69;96.18;101283.78;5068471;28;20058;-77
2023/06/30 04:19:00;;;;;;;7.07;2.03;;;;;;;15.78;95.44;101287.81;5073797;28;20039;-77
2023/06/30 04:21:26;;;;;;;3.03;1.50;;;;;;;15.71;95.68;101282.16;5086909;28;20055;-77
2023/06/30 04:23:51;;;;;;;3.53;1.80;;;;;;;15.67;95.75;101278.53;5087244;28;20047;-77
2023/06/30 04:26:17;;;;;;;6.00;2.08;;;;;;;15.61;96.38;101275.28;5075758;28;20023;-77
2023/06/30 04:28:43;;;;;;;2.50;1.13;;;;;;;15.77;95.38;101285.38;5086656;28;20583;-78
2023/06/30 04:31:09;;;;;;;6.38;1.80;;;;;;;15.73;95.71;101281.78;5083099;28;20023;-77
2023/06/30 04:33:34;;;;;;;5.32;1.67;;;;;;;15.75;95.12;101282.19;5079808;28;20050;-77
2023/06/30 04:36:00;;;;;;;4.22;2.00;;;;;;;15.78;94.58;101276.53;5087492;28;20447;-77
2023/06/30 04:38:25;;;;;;;2.92;2.05;;;;;;;15.72;94.90;101272.50;5071772;28;20059;-77
2023/06/30 04:40:50;;;;;;;3.22;1.55;;;;;;;15.83;94.14;101273.31;5083914;28;20032;-77
2023/06/30 04:43:16;;;;;;;5.93;1.77;;;;;;;15.84;94.72;101272.09;5085497;28;20028;-77
2023/06/30 04:45:42;;;;;;;5.22;1.67;;;;;;;15.71;95.10;101275.72;5079035;28;20475;-77
2023/06/30 04:48:07;;;;;;;4.80;1.63;;;;;;;15.75;95.43;101279.38;5082071;28;20118;-77
2023/06/30 04:50:33;;;;;;;3.10;1.55;;;;;;;15.89;93.95;101290.63;5087255;28;20034;-77
2023/06/30 04:52:59;;;;;;;3.92;1.60;;;;;;;15.74;95.43;101289.03;5090141;28;20377;-77
2023/06/30 04:55:24;;;;;;;5.13;1.45;;;;;;;15.85;94.39;101282.19;5089026;28;20034;-77
2023/06/30 04:57:49;;;;;;;5.78;1.70;;;;;;;15.85;94.60;101281.34;5081720;28;20039;-77
2023/06/30 05:00:15;;;;;;;4.57;1.65;;;;;;;15.91;94.12;101290.22;5085630;28;20158;-77
2023/06/30 05:02:40;;;;;;;6.35;1.85;;;;;;;15.95;93.78;101283.34;5085582;28;20023;-77
2023/06/30 05:05:06;;;;;;;3.25;1.50;;;;;;;15.94;94.40;101290.22;5067847;28;20040;-77
2023/06/30 05:07:32;;;;;;;3.85;1.50;;;;;;;16.02;93.56;101286.19;5072551;28;20035;-77
2023/06/30 05:09:57;;;;;;;4.07;1.67;;;;;;;15.68;95.25;101277.28;5088981;28;20474;-78
2023/06/30 05:12:22;;;;;;;4.45;1.88;;;;;;;15.63;95.66;101281.34;5094691;28;20372;-78
2023/06/30 05:14:48;;;;;;;3.72;1.35;;;;;;;15.79;95.54;101283.78;5093638;28;20027;-77
2023/06/30 05:17:14;;;;;;;4.88;1.77;;;;;;;15.89;94.91;101287.81;5087553;28;20023;-77
2023/06/30 05:19:40;;;;;;;5.25;1.92;;;;;;;15.92;94.27;101284.19;5092444;28;20031;-78
2023/06/30 05:22:06;;;;;;;6.00;1.52;;;;;;;16.01;94.12;101289.41;5088687;28;20634;-77
2023/06/30 05:24:33;;;;;;;7.20;2.08;;;;;;;15.95;95.34;101289.00;5090424;28;20031;-77
2023/06/30 05:26:59;;;;;;;2.85;1.33;;;;;;;15.99;94.78;101284.16;5101777;28;20144;-77
2023/06/30 05:29:24;;;;;;;3.75;1.45;;;;;;;16.13;93.64;101279.69;5085762;28;20055;-77
2023/06/30 05:31:49;;;;;;;3.83;1.85;;;;;;;16.09;94.33;101281.75;5090108;28;20051;-77
2023/06/30 05:34:15;;;;;;;3.85;1.60;;;;;;;16.08;94.00;101274.47;5097078;28;20035;-77
2023/06/30 05:36:44;;;;;;;8.60;1.98;;;;;;;16.16;94.08;101291.00;5093110;28;20016;-77
2023/06/30 05:39:10;;;;;;;2.03;1.73;;;;;;;15.87;96.65;101287.41;5082505;28;20043;-77
2023/06/30 05:41:36;;;;;;;5.28;1.60;;;;;;;16.03;94.61;101287.78;5096773;28;20119;-77
2023/06/30 05:44:01;;;;;;;5.85;2.17;;;;;;;16.03;96.01;101287.78;5088650;28;20027;-77
2023/06/30 05:46:27;;;;;;;9.38;2.08;;;;;;;15.98;96.20;101285.38;5094049;28;20471;-77
2023/06/30 05:48:52;;;;;;;4.32;1.60;;;;;;;16.23;94.93;101290.16;5089691;28;20036;-77
2023/06/30 05:51:18;;;;;;;5.95;1.25;;;;;;;16.38;94.07;101291.75;5087370;28;20050;-79
2023/06/30 05:53:43;;;;;;;3.83;1.88;;;;;;;17.15;91.82;101293.84;5087642;28;20023;-78
2023/06/30 05:56:08;;;;;;;4.65;1.60;;;;;;;17.67;89.46;101288.22;5073278;28;20120;-78
2023/06/30 05:58:37;;;;;;;3.55;2.10;;;;;;;17.29;91.50;101287.31;5098060;28;20046;-78
2023/06/30 06:01:03;;;;;;;2.42;1.50;;;;;;;17.59;93.35;101295.16;5102897;28;20053;-79
2023/06/30 06:03:30;;;;;;;4.40;1.73;;;;;;;18.64;92.78;101289.28;5092942;28;20032;-78
2023/06/30 06:06:00;;;;;;;4.30;1.67;;;;;;;18.63;89.94;101293.34;5093136;28;20384;-80
2023/06/30 06:08:25;;;;;;;6.45;1.70;;;;;;;18.26;87.02;101287.28;5086769;28;20114;-78
2023/06/30 06:10:51;;;;;;;4.55;1.33;;;;;;;18.22;87.71;101291.38;5080112;28;20161;-77
2023/06/30 06:13:36;;;;;;;8.02;1.75;;;;;;;18.51;86.98;101302.38;5090366;28;20111;-78
2023/06/30 06:16:02;;;;;;;6.32;1.73;;;;;;;18.78;83.64;101308.97;5097283;28;20365;-77
2023/06/30 06:18:27;;;;;;;4.53;2.08;;;;;;;18.70;85.46;101310.28;5094120;28;20054;-76
2023/06/30 06:20:53;;;;;;;3.47;1.40;;;;;;;18.35;86.93;101311.50;5088446;28;20479;-77
2023/06/30 06:23:19;;;;;;;5.65;1.75;;;;;;;18.44;83.73;101312.59;5079893;28;20024;-77
2023/06/30 06:25:45;;;;;;;3.20;1.40;;;;;;;18.45;84.80;101317.03;5093350;28;20028;-76
2023/06/30 06:28:10;;;;;;;5.38;2.45;;;;;;;18.89;83.50;101323.84;5071017;28;20518;-76
2023/06/30 06:30:35;;;;;;;3.25;1.48;;;;;;;18.89;84.54;101317.38;5072400;28;20027;-77
2023/06/30 06:33:01;;;;;;;3.88;2.58;;;;;;;18.01;86.18;101315.88;5091634;28;20032;-76
2023/06/30 06:35:26;;;;;;;2.78;1.40;;;;;;;17.94;88.15;101315.94;5091958;28;20118;-76
2023/06/30 06:37:52;;;;;;;6.43;1.80;;;;;;;18.61;85.70;101321.31;5095017;28;20115;-77
2023/06/30 06:40:17;;;;;;;2.92;1.67;;;;;;;18.57;86.59;101312.84;5081492;28;20032;-77
2023/06/30 06:42:42;;;;;;;4.50;1.42;;;;;;;18.46;84.35;101307.28;5094954;28;20034;-77
2023/06/30 06:45:08;;;;;;;3.28;1.55;;;;;;;18.83;83.65;101314.19;5098726;28;20035;-77
2023/06/30 06:48:12;;;;;;;7.28;1.60;;;;;;;18.69;84.24;101314.34;5098530;28;20042;-76
2023/06/30 06:50:37;;;;;;;3.78;2.03;;;;;;;19.00;82.70;101312.34;5080569;28;20534;-77
2023/06/30 06:53:03;;;;;;;4.65;2.20;;;;;;;18.51;86.57;101310.91;5085993;28;20023;-77
2023/06/30 06:55:28;;;;;;;7.00;1.73;;;;;;;18.97;83.24;101309.53;5103838;28;20020;-77
2023/06/30 06:57:54;;;;;;;5.30;1.40;;;;;;;18.56;85.28;101308.41;5103457;28;20438;-77
2023/06/30 07:00:20;;;;;;;6.45;1.48;;;;;;;18.42;85.88;101317.88;5102250;28;20504;-77
2023/06/30 07:02:45;;;;;;;2.88;1.10;;;;;;;18.68;84.74;101318.41;5101613;28;20454;-77
2023/06/30 07:05:11;;;;;;;4.38;1.88;;;;;;;17.87;88.24;101308.28;5095199;28;20119;-77
2023/06/30 07:07:36;;;;;;;4.20;1.95;;;;;;;18.45;86.80;101307.75;5103419;28;20028;-77
2023/06/30 07:10:02;;;;;;;3.20;1.67;;;;;;;18.80;83.68;101308.56;5092119;28;20036;-77
2023/06/30 07:12:27;;;;;;;1.73;1.50;;;;;;;18.73;84.36;101309.41;5075016;28;20035;-77
2023/06/30 07:14:53;;;;;;;2.42;1.27;;;;;;;18.41;86.04;101304.94;5092893;28;20115;-77
2023/06/30 07:17:18;;;;;;;4.13;1.27;;;;;;;18.71;84.33;101305.41;5083663;28;20492;-77
2023/06/30 07:19:43;;;;;;;6.45;1.42;;;;;;;18.46;83.69;101300.81;5100392;28;20110;-76
2023/06/30 07:22:09;;;;;;;2.63;1.42;;;;;;;18.89;81.32;101306.03;5096155;28;20024;-76
2023/06/30 07:24:34;;;;;;;5.15;1.50;;;;;;;18.98;82.11;101309.13;5094550;28;20039;-76
2023/06/30 07:26:59;;;;;;;3.30;2.25;;;;;;;18.75;83.15;101306.97;5096668;28;20566;-76
2023/06/30 07:29:25;;;;;;;4.38;1.60;;;;;;;18.85;82.74;101311.72;5098454;28;20040;-76
2023/06/30 07:31:50;;;;;;;4.15;1.52;;;;;;;18.82;83.69;101306.91;5093775;28;20491;-76
2023/06/30 07:34:19;;;;;;;6.20;1.48;;;;;;;19.20;81.34;101312.47;5095980;28;20059;-76
2023/06/30 07:36:45;;;;;;;5.15;1.50;;;;;;;19.24;80.40;101307.53;5079743;28;20514;-76
2023/06/30 07:39:11;;;;;;;6.05;1.70;;;;;;;19.08;81.07;101313.84;5085798;28;20779;-77
2023/06/30 07:41:36;;;;;;;6.45;1.60;;;;;;;19.03;82.21;101305.81;5098740;28;20028;-77
2023/06/30 07:44:02;;;;;;;2.20;1.13;;;;;;;19.07;81.94;101306.56;5098549;28;20388;-77
2023/06/30 07:46:27;;;;;;;6.57;1.45;;;;;;;19.24;81.32;101304.69;5097994;28;20085;-76
2023/06/30 07:48:53;;;;;;;2.95;1.38;;;;;;;19.48;80.17;101316.91;5091621;28;20036;-77
2023/06/30 07:51:19;;;;;;;5.97;1.55;;;;;;;19.47;78.63;101309.63;5104005;28;20028;-77
2023/06/30 07:53:44;;;;;;;7.93;2.15;;;;;;;19.70;78.30;101308.09;5094953;28;20112;-77
2023/06/30 07:56:10;;;;;;;3.22;1.10;;;;;;;19.05;80.80;101294.03;5098872;28;20032;-78
2023/06/30 07:58:35;;;;;;;8.18;1.60;;;;;;;18.97;80.05;101289.69;5095085;28;20038;-77
2023/06/30 08:01:01;;;;;;;5.53;1.50;;;;;;;19.24;75.63;101296.19;5096073;28;20038;-77
2023/06/30 08:03:26;;;;;;;3.85;1.30;;;;;;;19.22;77.13;101290.13;5099108;28;20031;-77
2023/06/30 08:05:52;;;;;;;4.03;1.50;;;;;;;19.35;79.28;101298.06;5091996;28;20024;-79
2023/06/30 08:08:17;;;;;;;4.25;1.35;;;;;;;19.60;76.80;101298.47;5091518;28;20024;-78
2023/06/30 08:10:43;;;;;;;3.15;0.98;;;;;;;19.42;76.59;101300.81;5098319;28;20477;-78
2023/06/30 08:13:08;;;;;;;2.15;1.10;;;;;;;19.79;75.14;101299.00;5098013;28;20415;-78
2023/06/30 08:15:33;;;;;;;4.25;1.95;;;;;;;19.62;76.36;101300.88;5080677;28;20080;-78
2023/06/30 08:17:59;;;;;;;5.78;1.35;;;;;;;19.69;73.69;101300.75;5096229;28;20031;-78
2023/06/30 08:20:24;;;;;;;4.40;1.73;;;;;;;19.85;77.90;101308.66;5097666;28;21365;-79
2023/06/30 08:22:50;;;;;;;3.85;1.55;;;;;;;19.67;76.32;101312.56;5091210;28;20056;-79
2023/06/30 08:25:15;;;;;;;4.55;1.27;;;;;;;19.95;70.39;101304.81;5095276;28;20032;-79
2023/06/30 08:27:41;;;;;;;4.57;1.70;;;;;;;19.66;76.43;101302.44;5094569;28;20476;-79
2023/06/30 08:30:07;;;;;;;2.92;1.33;;;;;;;19.22;75.66;101307.16;5071438;28;20024;-78
2023/06/30 08:32:32;;;;;;;3.03;1.38;;;;;;;19.51;72.37;101298.22;5092336;28;20031;-78
2023/06/30 08:34:58;;;;;;;1.85;1.20;;;;;;;19.36;77.63;101299.69;5095869;28;20486;-78
2023/06/30 08:37:23;;;;;;;4.63;1.85;;;;;;;19.57;78.14;101302.19;5081380;28;20087;-78
2023/06/30 08:39:49;;;;;;;3.08;1.50;;;;;;;20.06;76.84;101307.47;5104059;28;20036;-78
2023/06/30 08:42:17;;;;;;;2.55;1.50;;;;;;;19.84;69.41;101295.69;5093207;28;20034;-78
2023/06/30 08:44:46;;;;;;;2.05;1.75;;;;;;;20.10;70.79;101300.47;5104047;28;20027;-78
2023/06/30 08:47:14;;;;;;;5.72;1.30;;;;;;;20.00;67.18;101297.84;5096621;28;20039;-78
2023/06/30 08:49:40;;;;;;;2.88;1.48;;;;;;;20.37;73.50;101307.31;5099810;28;20133;-78
2023/06/30 08:52:06;;;;;;;1.70;1.17;;;;;;;20.44;71.88;101307.97;5096119;28;20032;-79
2023/06/30 08:54:35;;;;;;;4.40;1.30;;;;;;;20.34;73.68;101308.16;5099572;28;20020;-78
2023/06/30 08:57:01;;;;;;;3.45;1.58;;;;;;;20.17;71.26;101310.13;5097292;28;20081;-78
2023/06/30 08:59:27;;;;;;;2.53;1.30;;;;;;;20.64;68.30;101305.16;5098822;28;20043;-78
2023/06/30 09:01:55;;;;;;;4.47;1.30;;;;;;;20.01;70.89;101297.41;5076359;28;20093;-78
2023/06/30 09:04:22;;;;;;;4.18;2.42;;;;;;;19.81;72.78;101291.66;5095348;28;20084;-78
2023/06/30 09:06:48;;;;;;;5.68;1.40;;;;;;;19.41;70.64;101285.00;5095985;28;20488;-78
2023/06/30 09:09:24;;;;;;;2.67;1.30;;;;;;;19.81;76.96;101285.19;5078947;28;20085;-78
2023/06/30 09:11:51;;;;;;;5.05;1.50;;;;;;;20.26;65.99;101290.44;5091868;28;20573;-79
2023/06/30 09:14:18;;;;;;;2.30;1.42;;;;;;;20.01;64.57;101280.38;5098799;28;20036;-78
2023/06/30 09:16:43;;;;;;;5.22;1.30;;;;;;;20.04;68.72;101292.88;5074630;28;20339;-78
2023/06/30 09:19:09;;;;;;;3.90;1.20;;;;;;;19.47;68.60;101288.97;5096969;28;20038;-78
2023/06/30 09:21:35;;;;;;;5.68;1.63;;;;;;;19.78;66.38;101274.69;5094686;28;20023;-78
2023/06/30 09:24:01;;;;;;;3.28;1.55;;;;;;;20.12;67.11;101285.03;5094704;28;20024;-79
2023/06/30 09:26:29;;;;;;;2.42;1.10;;;;;;;19.95;67.63;101272.78;5090655;28;20027;-79
2023/06/30 09:28:55;;;;;;;3.92;1.40;;;;;;;20.13;66.92;101267.53;5094758;28;20380;-79
2023/06/30 09:31:29;;;;;;;5.93;1.70;;;;;;;20.72;68.91;101271.66;5084633;28;20027;-78
2023/06/30 09:34:06;;;;;;;5.07;1.33;;;;;;;20.44;70.61;101267.34;5077026;28;20475;-79
2023/06/30 09:36:34;;;;;;;2.03;1.20;;;;;;;20.52;63.97;101285.88;5087982;28;20052;-79
2023/06/30 09:38:59;;;;;;;2.70;1.10;;;;;;;20.51;69.20;101265.19;5094946;28;20032;-78
2023/06/30 09:41:26;;;;;;;2.20;1.63;;;;;;;20.49;69.13;101266.84;5096298;28;20031;-79
2023/06/30 09:43:57;;;;;;;2.95;1.50;;;;;;;20.91;61.03;101264.34;5093465;28;20034;-78
2023/06/30 09:46:23;;;;;;;2.42;1.20;;;;;;;20.91;68.95;101273.72;5089154;28;20031;-78
2023/06/30 09:48:53;;;;;;;2.75;1.30;;;;;;;21.16;66.46;101266.63;5097007;28;20039;-79
2023/06/30 09:51:20;;;;;;;3.28;1.58;;;;;;;20.91;66.16;101265.16;5097833;28;20459;-78
2023/06/30 09:53:46;;;;;;;4.15;1.98;;;;;;;20.64;63.32;101256.00;5100434;28;20111;-80
2023/06/30 09:56:20;;;;;;;3.60;1.35;;;;;;;20.38;62.24;101269.09;5080860;28;20114;-78
2023/06/30 09:58:46;;;;;;;2.15;1.00;;;;;;;20.56;64.83;101266.72;5092723;28;20046;-78
2023/06/30 10:01:11;;;;;;;1.30;1.20;;;;;;;20.56;61.43;101271.59;5092918;28;20024;-79
2023/06/30 10:03:49;;;;;;;3.20;1.83;;;;;;;20.63;64.47;101262.94;5092771;28;20027;-79
2023/06/30 10:06:21;;;;;;;4.93;1.60;;;;;;;20.82;68.88;101272.69;5074549;28;20155;-79
2023/06/30 10:08:48;;;;;;;2.00;1.33;;;;;;;20.96;64.01;101255.31;5089506;28;20024;-79
2023/06/30 10:11:14;;;;;;;3.95;1.80;;;;;;;21.06;65.18;101250.59;5097204;28;20035;-79
2023/06/30 10:13:42;;;;;;;7.40;2.70;;;;;;;21.31;67.89;101255.69;5091324;28;20054;-80
2023/06/30 10:16:09;;;;;;;4.22;1.40;;;;;;;20.67;65.20;101255.13;5075368;28;20761;-79
2023/06/30 10:18:41;;;;;;;2.72;1.63;;;;;;;21.03;66.59;101245.81;5083762;28;20488;-78
2023/06/30 10:21:06;;;;;;;;;;;;;;;21.21;64.29;101249.03;5095106;28;20114;-79
2023/06/30 10:23:35;;;;;;;2.08;1.88;;;;;;;21.07;62.46;101253.00;5089536;28;19994;-78
2023/06/30 10:26:05;;;;;;;3.03;1.77;;;;;;;21.20;59.64;101243.78;5088964;28;20024;-79
2023/06/30 10:28:33;;;;;;;3.95;2.47;;;;;;;21.08;68.83;101250.97;5090527;28;20158;-79
2023/06/30 10:30:59;;;;;;;4.07;2.17;;;;;;;21.11;63.66;101248.03;5099895;28;20019;-79
2023/06/30 10:33:24;;;;;;;4.75;1.85;;;;;;;20.67;64.06;101243.75;5081248;28;20479;-79
2023/06/30 10:35:51;;;;;;;4.07;1.30;;;;;;;21.05;69.00;101241.25;5086348;28;20024;-79
2023/06/30 10:38:18;;;;;;;3.70;1.20;;;;;;;21.60;70.30;101233.03;5091163;28;20036;-79
2023/06/30 10:40:43;;;;;;;2.40;1.73;;;;;;;21.28;65.29;101236.66;5095287;28;20441;-79
2023/06/30 10:43:10;;;;;;;3.50;2.10;;;;;;;21.04;60.46;101238.84;5096264;28;20053;-79
2023/06/30 10:46:06;;;;;;;2.65;1.27;;;;;;;21.22;65.83;101242.09;5095035;28;20031;-79
2023/06/30 10:48:31;;;;;;;5.45;1.88;;;;;;;21.22;58.79;101239.25;5089797;28;20496;-79
2023/06/30 10:50:57;;;;;;;2.33;1.38;;;;;;;21.74;62.11;101239.63;5089471;28;20031;-79
2023/06/30 10:53:22;;;;;;;2.53;1.70;;;;;;;21.83;58.81;101231.25;5096251;28;20549;-79
2023/06/30 10:55:48;;;;;;;3.08;1.60;;;;;;;22.30;60.43;101236.47;5092057;28;20123;-78
2023/06/30 10:58:26;;;;;;;14.32;2.10;;;;;;;21.67;58.30;101235.72;5072655;28;20504;-79
2023/06/30 11:01:05;;;;;;;3.80;1.50;;;;;;;21.51;63.35;101230.03;5092400;28;20441;-79
2023/06/30 11:03:56;;;;;;;2.05;1.13;;;;;;;21.31;59.90;101230.91;5092841;28;20023;-78
2023/06/30 11:06:21;;;;;;;4.03;1.55;;;;;;;21.29;67.18;101227.69;5076478;28;20043;-79
2023/06/30 11:09:09;;;;;;;2.58;1.40;;;;;;;21.02;59.59;101227.09;5098106;28;20036;-79
2023/06/30 11:11:51;;;;;;;3.45;1.88;;;;;;;21.27;64.13;101218.78;5087240;28;20323;-78
2023/06/30 11:14:39;;;;;;;3.33;1.50;;;;;;;21.74;68.61;101231.88;5098084;28;20035;-78
2023/06/30 11:17:07;;;;;;;4.10;1.65;;;;;;;21.80;62.37;101227.25;5083238;28;20134;-78
2023/06/30 11:19:38;;;;;;;2.28;1.70;;;;;;;21.89;68.64;101229.44;5096471;28;20058;-79
2023/06/30 11:22:29;;;;;;;2.40;1.80;;;;;;;22.03;66.80;101228.25;5093407;28;20054;-78